Time;durP1;ratioP1;P1;durP2;ratioP2;P2;SDS_P1;SDS_P2;PMS_P1;PMS_P2;Temp;Humidity;BMP_temperature;BMP_pressure;BME280_temperature;BME280_humidity;BME280_pressure;Samples;Min_cycle;Max_cycle;Signal;HPM_P1;HPM_P2
2022/12/01 00:02:14;;;;;;;10.05;9.55;;;;;;;-143.83;100.00;62900.06;4922509;29;20449;-66
2022/12/01 00:04:39;;;;;;;10.32;9.82;;;;;;;-143.83;100.00;62900.06;4929124;29;20019;-67
2022/12/01 00:07:04;;;;;;;9.77;9.27;;;;;;;-143.83;100.00;62900.06;4916274;29;20036;-65
2022/12/01 00:12:14;;;;;;;9.93;9.43;;;;;;;-143.83;100.00;62900.06;4923702;29;20110;-67
2022/12/01 00:14:41;;;;;;;10.15;9.65;;;;;;;-143.83;100.00;62900.06;4928142;29;20036;-67
2022/12/01 00:17:06;;;;;;;9.48;9.07;;;;;;;-143.83;100.00;62900.06;4924949;29;20038;-65
2022/12/01 00:19:31;;;;;;;9.85;9.35;;;;;;;-143.83;100.00;62900.06;4925189;29;20365;-66
2022/12/01 00:21:57;;;;;;;9.93;9.43;;;;;;;-143.83;100.00;62900.06;4927795;29;20090;-66
2022/12/01 00:24:23;;;;;;;10.13;9.63;;;;;;;-143.83;100.00;62900.06;4922614;29;20039;-66
2022/12/01 00:26:49;;;;;;;10.15;9.65;;;;;;;-143.83;100.00;62900.06;4925362;29;20035;-66
2022/12/01 00:29:14;;;;;;;9.20;8.80;;;;;;;-143.83;100.00;62900.06;4925675;29;20134;-66
2022/12/01 00:31:40;;;;;;;9.30;8.90;;;;;;;-143.83;100.00;62900.06;4921984;29;20028;-66
2022/12/01 00:34:06;;;;;;;9.50;9.10;;;;;;;-143.83;100.00;62900.06;4926260;29;20032;-67
2022/12/01 00:36:31;;;;;;;9.48;9.05;;;;;;;-143.83;100.00;62900.06;4922460;29;20033;-66
2022/12/01 00:38:57;;;;;;;9.30;8.90;;;;;;;-143.83;100.00;62900.06;4930651;29;20094;-65
2022/12/01 00:41:24;;;;;;;9.73;9.23;;;;;;;-143.83;100.00;62900.06;4928196;29;20022;-66
2022/12/01 00:43:50;;;;;;;9.50;9.07;;;;;;;-143.83;100.00;62900.06;4907934;29;20059;-65
2022/12/01 00:46:16;;;;;;;9.85;9.35;;;;;;;-143.83;100.00;62900.06;4930802;29;20035;-67
2022/12/01 00:48:42;;;;;;;9.95;9.45;;;;;;;-143.83;100.00;62900.06;4929296;29;20027;-66
2022/12/01 00:51:08;;;;;;;9.90;9.40;;;;;;;-143.83;100.00;62900.06;4929270;29;20040;-66
2022/12/01 00:53:34;;;;;;;9.90;9.45;;;;;;;-143.83;100.00;62900.06;4925640;29;20722;-66
2022/12/01 00:55:59;;;;;;;9.70;9.27;;;;;;;-143.83;100.00;62900.06;4912848;29;20126;-67
2022/12/01 00:58:25;;;;;;;9.73;9.23;;;;;;;-143.83;100.00;62900.06;4930675;29;20042;-67
2022/12/01 01:01:01;;;;;;;9.93;9.45;;;;;;;-143.83;100.00;62900.06;4926288;29;20064;-66
2022/12/01 01:03:27;;;;;;;10.05;9.55;;;;;;;-143.83;100.00;62900.06;4922921;29;20083;-67
2022/12/01 01:05:53;;;;;;;10.02;9.52;;;;;;;-143.83;100.00;62900.06;4910119;29;20542;-66
2022/12/01 01:08:18;;;;;;;11.05;10.45;;;;;;;-143.83;100.00;62900.06;4932677;29;20031;-66
2022/12/01 01:10:47;;;;;;;10.15;9.65;;;;;;;-143.83;100.00;62900.06;4930757;29;20491;-66
2022/12/01 01:13:14;;;;;;;9.80;9.30;;;;;;;-143.83;100.00;62900.06;4919557;29;20515;-66
2022/12/01 01:15:40;;;;;;;9.73;9.32;;;;;;;-143.83;100.00;62900.06;4929856;29;20035;-66
2022/12/01 01:18:06;;;;;;;10.23;9.73;;;;;;;-143.83;100.00;62900.06;4928714;29;20067;-65
2022/12/01 01:20:32;;;;;;;10.10;9.60;;;;;;;-143.83;100.00;62900.06;4929152;29;20028;-66
2022/12/01 01:22:57;;;;;;;10.20;9.70;;;;;;;-143.83;100.00;62900.06;4926648;29;20497;-66
2022/12/01 01:25:23;;;;;;;10.25;9.75;;;;;;;-143.83;100.00;62900.06;4920247;29;20035;-66
2022/12/01 01:27:49;;;;;;;10.30;9.80;;;;;;;-143.83;100.00;62900.06;4926265;29;20114;-66
2022/12/01 01:30:17;;;;;;;10.18;9.68;;;;;;;-143.83;100.00;62900.06;4927410;29;20059;-66
2022/12/01 01:32:42;;;;;;;10.05;9.60;;;;;;;-143.83;100.00;62900.06;4924544;29;20123;-66
2022/12/01 01:35:08;;;;;;;10.38;9.88;;;;;;;-143.83;100.00;62900.06;4926795;29;20119;-66
2022/12/01 01:37:34;;;;;;;9.88;9.38;;;;;;;-143.83;100.00;62900.06;4926647;29;20099;-66
2022/12/01 01:39:59;;;;;;;9.82;9.32;;;;;;;-143.83;100.00;62900.06;4914845;29;20047;-67
2022/12/01 01:42:25;;;;;;;10.20;9.70;;;;;;;-143.83;100.00;62900.06;4927457;29;20020;-66
2022/12/01 01:44:52;;;;;;;10.45;9.95;;;;;;;-143.83;100.00;62900.06;4926628;29;20034;-66
2022/12/01 01:47:31;;;;;;;10.07;9.57;;;;;;;-143.83;100.00;62900.06;4925551;29;20024;-66
2022/12/01 01:50:04;;;;;;;9.70;9.30;;;;;;;-143.83;100.00;62900.06;4922690;29;20032;-66
2022/12/01 01:52:31;;;;;;;10.18;9.68;;;;;;;-143.83;100.00;62900.06;4924166;29;20076;-66
2022/12/01 01:54:57;;;;;;;10.15;9.65;;;;;;;-143.83;100.00;62900.06;4910796;29;20574;-67
2022/12/01 01:57:27;;;;;;;9.35;8.95;;;;;;;-143.83;100.00;62900.06;4925537;29;20031;-66
2022/12/01 02:00:00;;;;;;;9.50;9.10;;;;;;;-143.83;100.00;62900.06;4928763;29;20032;-66
2022/12/01 02:02:26;;;;;;;9.50;9.10;;;;;;;-143.83;100.00;62900.06;4910735;29;20019;-66
2022/12/01 02:04:57;;;;;;;10.00;9.50;;;;;;;-143.83;100.00;62900.06;4925039;29;20030;-66
2022/12/01 02:07:24;;;;;;;10.02;9.52;;;;;;;-143.83;100.00;62900.06;4931326;29;20024;-66
2022/12/01 02:09:49;;;;;;;9.80;9.30;;;;;;;-143.83;100.00;62900.06;4929978;29;20484;-65
2022/12/01 02:12:29;;;;;;;9.50;9.10;;;;;;;-143.83;100.00;62900.06;4930927;29;20060;-65
2022/12/01 02:15:10;;;;;;;9.40;9.00;;;;;;;-143.83;100.00;62900.06;4923444;29;20031;-66
2022/12/01 02:17:49;;;;;;;9.48;9.07;;;;;;;-143.83;100.00;62900.06;4923696;29;20108;-66
2022/12/01 02:20:44;;;;;;;9.95;9.45;;;;;;;-143.83;100.00;62900.06;4925345;29;20059;-66
2022/12/01 02:23:25;;;;;;;9.57;9.18;;;;;;;-143.83;100.00;62900.06;4914068;29;20575;-66
2022/12/01 02:26:08;;;;;;;10.43;9.93;;;;;;;-143.83;100.00;62900.06;4925335;29;20559;-66
2022/12/01 02:28:39;;;;;;;9.38;8.98;;;;;;;-143.83;100.00;62900.06;4927641;29;20250;-66
2022/12/01 02:31:16;;;;;;;10.38;9.88;;;;;;;-143.83;100.00;62900.06;4913292;29;20399;-66
2022/12/01 02:33:56;;;;;;;9.38;8.98;;;;;;;-143.83;100.00;62900.06;4925050;29;20483;-66
2022/12/01 02:36:57;;;;;;;10.38;9.88;;;;;;;-143.83;100.00;62900.06;4929939;29;20032;-66
2022/12/01 02:39:50;;;;;;;10.27;9.77;;;;;;;-143.83;100.00;62900.06;4925389;29;20415;-66
2022/12/01 02:42:48;;;;;;;10.35;9.85;;;;;;;-143.83;100.00;62900.06;4924388;29;20060;-67
2022/12/01 02:45:22;;;;;;;10.15;9.65;;;;;;;-143.83;100.00;62900.06;4927354;29;20118;-67
2022/12/01 02:47:51;;;;;;;9.95;9.45;;;;;;;-143.83;100.00;62900.06;4928492;29;20039;-67
2022/12/01 02:50:18;;;;;;;10.25;9.75;;;;;;;-143.83;100.00;62900.06;4927248;29;20538;-67
2022/12/01 02:52:44;;;;;;;9.90;9.43;;;;;;;-143.83;100.00;62900.06;4929747;29;20093;-67
2022/12/01 02:55:11;;;;;;;9.85;9.40;;;;;;;-143.83;100.00;62900.06;4927123;29;20118;-67
2022/12/01 02:57:37;;;;;;;9.90;9.40;;;;;;;-143.83;100.00;62900.06;4928735;29;20031;-67
2022/12/01 03:00:05;;;;;;;10.15;9.65;;;;;;;-143.83;100.00;62900.06;4923971;29;20596;-67
2022/12/01 03:02:58;;;;;;;9.98;9.48;;;;;;;-143.83;100.00;62900.06;4926294;29;20024;-66
2022/12/01 03:05:44;;;;;;;10.10;9.60;;;;;;;-143.83;100.00;62900.06;4926342;29;20517;-67
2022/12/01 03:08:22;;;;;;;10.55;10.05;;;;;;;-143.83;100.00;62900.06;4926649;29;20110;-65
2022/12/01 03:10:53;;;;;;;10.05;9.55;;;;;;;-143.83;100.00;62900.06;4922657;29;20079;-66
2022/12/01 03:13:41;;;;;;;10.27;9.77;;;;;;;-143.83;100.00;62900.06;4920133;29;20099;-66
2022/12/01 03:16:11;;;;;;;10.30;9.80;;;;;;;-143.83;100.00;62900.06;4923086;29;20028;-66
2022/12/01 03:18:58;;;;;;;10.20;9.70;;;;;;;-143.83;100.00;62900.06;4928014;29;20458;-65
2022/12/01 03:21:45;;;;;;;10.57;10.07;;;;;;;-143.83;100.00;62900.06;4925972;29;20028;-66
2022/12/01 03:24:16;;;;;;;10.63;10.13;;;;;;;-143.83;100.00;62900.06;4927208;29;20491;-66
2022/12/01 03:26:46;;;;;;;10.20;9.70;;;;;;;-143.83;100.00;62900.06;4927212;29;20035;-66
2022/12/01 03:29:24;;;;;;;10.40;9.90;;;;;;;-143.83;100.00;62900.06;4926681;29;20107;-66
2022/12/01 03:32:11;;;;;;;10.40;9.90;;;;;;;-143.83;100.00;62900.06;4925394;29;20039;-67
2022/12/01 03:34:46;;;;;;;10.70;10.20;;;;;;;-143.83;100.00;62900.06;4909127;29;20031;-66
2022/12/01 03:37:46;;;;;;;11.30;10.70;;;;;;;-143.83;100.00;62900.06;4924917;29;20036;-66
2022/12/01 03:40:17;;;;;;;11.38;10.77;;;;;;;-143.83;100.00;62900.06;4929854;29;20105;-66
2022/12/01 03:42:51;;;;;;;11.00;10.45;;;;;;;-143.83;100.00;62900.06;4924640;29;20024;-66
2022/12/01 03:45:25;;;;;;;10.75;10.25;;;;;;;-143.83;100.00;62900.06;4924706;29;20114;-66
2022/12/01 03:47:51;;;;;;;10.45;9.95;;;;;;;-143.83;100.00;62900.06;4914114;29;20027;-66
2022/12/01 03:50:17;;;;;;;11.32;10.73;;;;;;;-143.83;100.00;62900.06;4924391;29;20429;-67
2022/12/01 03:52:58;;;;;;;10.20;9.70;;;;;;;-143.83;100.00;62900.06;4924750;29;20107;-65
2022/12/01 03:55:29;;;;;;;10.73;10.23;;;;;;;-143.83;100.00;62900.06;4905538;29;20115;-65
2022/12/01 03:58:12;;;;;;;10.90;10.40;;;;;;;-143.83;100.00;62900.06;4919554;29;20020;-66
2022/12/01 04:00:39;;;;;;;10.40;9.90;;;;;;;-143.83;100.00;62900.06;4925030;29;20399;-66
2022/12/01 04:03:05;;;;;;;10.93;10.43;;;;;;;-143.83;100.00;62900.06;4922037;29;20114;-65
2022/12/01 04:05:33;;;;;;;10.70;10.20;;;;;;;-143.83;100.00;62900.06;4929216;29;20027;-65
2022/12/01 04:07:59;;;;;;;10.13;9.65;;;;;;;-143.83;100.00;62900.06;4926493;29;20031;-66
2022/12/01 04:10:24;;;;;;;10.35;9.85;;;;;;;-143.83;100.00;62900.06;4921367;29;20688;-66
2022/12/01 04:12:50;;;;;;;10.95;10.40;;;;;;;-143.83;100.00;62900.06;4925163;29;20035;-67
2022/12/01 04:15:16;;;;;;;11.38;10.77;;;;;;;-143.83;100.00;62900.06;4927314;29;20024;-66
2022/12/01 04:17:43;;;;;;;10.95;10.45;;;;;;;-143.83;100.00;62900.06;4911078;29;20028;-66
2022/12/01 04:20:10;;;;;;;10.70;10.20;;;;;;;-143.83;100.00;62900.06;4924891;29;20023;-66
2022/12/01 04:22:36;;;;;;;10.48;9.98;;;;;;;-143.83;100.00;62900.06;4924213;29;20034;-67
2022/12/01 04:25:03;;;;;;;10.68;10.18;;;;;;;-143.83;100.00;62900.06;4925515;29;20024;-66
2022/12/01 04:27:29;;;;;;;10.50;10.00;;;;;;;-143.83;100.00;62900.06;4925629;29;20044;-66
2022/12/01 04:29:54;;;;;;;10.27;9.77;;;;;;;-143.83;100.00;62900.06;4929839;29;20043;-66
2022/12/01 04:32:20;;;;;;;11.18;10.57;;;;;;;-143.83;100.00;62900.06;4931552;29;20020;-65
2022/12/01 04:34:45;;;;;;;10.63;10.13;;;;;;;-143.83;100.00;62900.06;4931022;29;20032;-65
2022/12/01 04:37:11;;;;;;;11.63;11.02;;;;;;;-143.83;100.00;62900.06;4927935;29;20039;-67
2022/12/01 04:39:37;;;;;;;11.13;10.63;;;;;;;-143.83;100.00;62900.06;4929303;29;20551;-66
2022/12/01 04:42:03;;;;;;;11.27;10.77;;;;;;;-143.83;100.00;62900.06;4928928;29;20118;-66
2022/12/01 04:44:29;;;;;;;11.23;10.73;;;;;;;-143.83;100.00;62900.06;4923953;29;20028;-66
2022/12/01 04:46:54;;;;;;;10.98;10.48;;;;;;;-143.83;100.00;62900.06;4931222;29;20039;-66
2022/12/01 04:49:20;;;;;;;11.15;10.60;;;;;;;-143.83;100.00;62900.06;4908169;29;20020;-66
2022/12/01 04:51:47;;;;;;;10.98;10.48;;;;;;;-143.83;100.00;62900.06;4929068;29;20122;-66
2022/12/01 04:54:13;;;;;;;11.02;10.48;;;;;;;-143.83;100.00;62900.06;4928872;29;20063;-65
2022/12/01 04:56:39;;;;;;;10.82;10.32;;;;;;;-143.83;100.00;62900.06;4930100;29;20034;-67
2022/12/01 04:59:04;;;;;;;11.80;11.20;;;;;;;-143.83;100.00;62900.06;4926991;29;20024;-66
2022/12/01 05:01:30;;;;;;;11.45;10.85;;;;;;;-143.83;100.00;62900.06;4930009;29;20379;-66
2022/12/01 05:03:55;;;;;;;11.65;11.05;;;;;;;-143.83;100.00;62900.06;4930859;29;20027;-66
2022/12/01 05:06:24;;;;;;;10.93;10.43;;;;;;;-143.83;100.00;62900.06;4926255;29;20036;-66
2022/12/01 05:08:53;;;;;;;11.10;10.55;;;;;;;-143.83;100.00;62900.06;4929660;29;20656;-66
2022/12/01 05:11:18;;;;;;;11.60;11.00;;;;;;;-143.83;100.00;62900.06;4911162;29;20508;-68
2022/12/01 05:13:46;;;;;;;10.90;10.40;;;;;;;-143.83;100.00;62900.06;4929484;29;20055;-66
2022/12/01 05:16:15;;;;;;;10.98;10.43;;;;;;;-143.83;100.00;62900.06;4930106;29;20043;-66
2022/12/01 05:18:41;;;;;;;10.93;10.43;;;;;;;-143.83;100.00;62900.06;4927234;29;20027;-65
2022/12/01 05:21:08;;;;;;;10.98;10.45;;;;;;;-143.83;100.00;62900.06;4930398;29;20083;-66
2022/12/01 05:23:36;;;;;;;10.82;10.32;;;;;;;-143.83;100.00;62900.06;4931507;29;20028;-66
2022/12/01 05:26:04;;;;;;;11.25;10.73;;;;;;;-143.83;100.00;62900.06;4921838;29;20068;-66
2022/12/01 05:28:30;;;;;;;11.25;10.65;;;;;;;-143.83;100.00;62900.06;4927124;29;20056;-66
2022/12/01 05:30:56;;;;;;;11.85;11.25;;;;;;;-143.83;100.00;62900.06;4929013;29;20479;-66
2022/12/01 05:33:23;;;;;;;11.70;11.10;;;;;;;-143.83;100.00;62900.06;4926987;29;20106;-66
2022/12/01 05:35:49;;;;;;;10.70;10.20;;;;;;;-143.83;100.00;62900.06;4921295;29;20119;-66
2022/12/01 05:38:16;;;;;;;11.00;10.48;;;;;;;-143.83;100.00;62900.06;4934711;29;20034;-66
2022/12/01 05:40:42;;;;;;;10.60;10.10;;;;;;;-143.83;100.00;62900.06;4929700;29;20024;-66
2022/12/01 05:43:07;;;;;;;11.27;10.73;;;;;;;-143.83;100.00;62900.06;4922148;29;20540;-66
2022/12/01 05:45:34;;;;;;;10.90;10.40;;;;;;;-143.83;100.00;62900.06;4925821;29;20028;-66
2022/12/01 05:48:00;;;;;;;11.10;10.60;;;;;;;-143.83;100.00;62900.06;4925534;29;20032;-66
2022/12/01 05:50:28;;;;;;;10.40;9.90;;;;;;;-143.83;100.00;62900.06;4922360;29;20488;-65
2022/12/01 05:52:54;;;;;;;11.32;10.73;;;;;;;-143.83;100.00;62900.06;4925379;29;20160;-66
2022/12/01 05:55:20;;;;;;;11.48;10.88;;;;;;;-143.83;100.00;62900.06;4928908;29;20384;-66
2022/12/01 05:57:46;;;;;;;10.93;10.43;;;;;;;-143.83;100.00;62900.06;4926165;29;20083;-66
2022/12/01 06:00:13;;;;;;;11.50;10.90;;;;;;;-143.83;100.00;62900.06;4923463;29;20028;-66
2022/12/01 06:02:40;;;;;;;11.05;10.55;;;;;;;-143.83;100.00;62900.06;4926961;29;20043;-66
2022/12/01 06:05:07;;;;;;;11.38;10.77;;;;;;;-143.83;100.00;62900.06;4930554;29;20067;-68
2022/12/01 06:07:34;;;;;;;10.57;10.07;;;;;;;-143.83;100.00;62900.06;4930481;29;20373;-66
2022/12/01 06:10:00;;;;;;;10.65;10.15;;;;;;;-143.83;100.00;62900.06;4926126;29;20036;-66
2022/12/01 06:12:26;;;;;;;10.30;9.80;;;;;;;-143.83;100.00;62900.06;4931207;29;20031;-66
2022/12/01 06:14:51;;;;;;;10.30;9.80;;;;;;;-143.83;100.00;62900.06;4926914;29;20391;-66
2022/12/01 06:17:17;;;;;;;10.35;9.85;;;;;;;-143.83;100.00;62900.06;4925218;29;20024;-66
2022/12/01 06:19:42;;;;;;;10.20;9.70;;;;;;;-143.83;100.00;62900.06;4910132;29;20037;-66
2022/12/01 06:22:08;;;;;;;10.15;9.65;;;;;;;-143.83;100.00;62900.06;4908990;29;20032;-66
2022/12/01 06:24:34;;;;;;;9.88;9.40;;;;;;;-143.83;100.00;62900.06;4928327;29;20034;-66
2022/12/01 06:26:59;;;;;;;10.18;9.68;;;;;;;-143.83;100.00;62900.06;4922862;29;20509;-66
2022/12/01 06:29:25;;;;;;;10.10;9.60;;;;;;;-143.83;100.00;62900.06;4897643;29;20062;-67
2022/12/01 06:31:50;;;;;;;10.40;9.90;;;;;;;-143.83;100.00;62900.06;4928590;29;20090;-66
2022/12/01 06:34:16;;;;;;;10.15;9.65;;;;;;;-143.83;100.00;62900.06;4918547;29;20036;-66
2022/12/01 06:36:41;;;;;;;9.90;9.40;;;;;;;-143.83;100.00;62900.06;4908948;29;20032;-67
2022/12/01 06:39:11;;;;;;;9.95;9.45;;;;;;;-143.83;100.00;62900.06;4928575;29;20047;-66
2022/12/01 06:41:37;;;;;;;9.85;9.38;;;;;;;-143.83;100.00;62900.06;4925257;29;20032;-67
2022/12/01 06:44:03;;;;;;;10.48;9.95;;;;;;;-143.83;100.00;62900.06;4921518;29;20024;-67
2022/12/01 06:46:28;;;;;;;10.55;10.05;;;;;;;-143.83;100.00;62900.06;4928494;29;20039;-67
2022/12/01 06:48:54;;;;;;;10.25;9.75;;;;;;;-143.83;100.00;62900.06;4927414;29;20031;-66
2022/12/01 06:51:20;;;;;;;10.65;10.15;;;;;;;-143.83;100.00;62900.06;4931194;29;20055;-66
2022/12/01 06:53:45;;;;;;;10.57;10.07;;;;;;;-143.83;100.00;62900.06;4926511;29;20023;-66
2022/12/01 06:56:11;;;;;;;10.77;10.23;;;;;;;-143.83;100.00;62900.06;4924130;29;20432;-66
2022/12/01 06:58:37;;;;;;;10.43;9.93;;;;;;;-143.83;100.00;62900.06;4929410;29;20395;-67
2022/12/01 07:01:12;;;;;;;10.55;10.05;;;;;;;-143.83;100.00;62900.06;4929951;29;20032;-67
2022/12/01 07:03:38;;;;;;;10.45;9.95;;;;;;;-143.83;100.00;62900.06;4928981;29;20111;-66
2022/12/01 07:06:04;;;;;;;11.27;10.68;;;;;;;-143.83;100.00;62900.06;4930307;29;20036;-66
2022/12/01 07:08:30;;;;;;;10.60;10.10;;;;;;;-143.83;100.00;62900.06;4925554;29;20059;-67
2022/12/01 07:11:01;;;;;;;11.05;10.45;;;;;;;-143.83;100.00;62900.06;4921614;29;20024;-66
2022/12/01 07:13:27;;;;;;;10.52;10.02;;;;;;;-143.83;100.00;62900.06;4927679;29;20507;-66
2022/12/01 07:15:53;;;;;;;13.23;12.40;;;;;;;-143.83;100.00;62900.06;4923126;29;20392;-66
2022/12/01 07:18:19;;;;;;;11.23;10.63;;;;;;;-143.83;100.00;62900.06;4926176;29;20142;-67
2022/12/01 07:20:44;;;;;;;10.70;10.20;;;;;;;-143.83;100.00;62900.06;4923835;29;20122;-66
2022/12/01 07:23:10;;;;;;;10.30;9.80;;;;;;;-143.83;100.00;62900.06;4927221;29;20030;-66
2022/12/01 07:25:35;;;;;;;10.50;10.00;;;;;;;-143.83;100.00;62900.06;4925198;29;21139;-66
2022/12/01 07:28:00;;;;;;;10.52;10.02;;;;;;;-143.83;100.00;62900.06;4923701;29;20036;-66
2022/12/01 07:30:26;;;;;;;10.80;10.30;;;;;;;-143.83;100.00;62900.06;4929867;29;20050;-67
2022/12/01 07:32:51;;;;;;;11.13;10.52;;;;;;;-143.83;100.00;62900.06;4907041;29;20491;-68
2022/12/01 07:35:17;;;;;;;11.50;10.90;;;;;;;-143.83;100.00;62900.06;4925136;29;20043;-67
2022/12/01 07:37:42;;;;;;;11.57;10.98;;;;;;;-143.83;100.00;62900.06;4910667;29;20110;-67
2022/12/01 07:40:09;;;;;;;11.07;10.48;;;;;;;-143.83;100.00;62900.06;4922758;29;20043;-67
2022/12/01 07:42:35;;;;;;;10.88;10.38;;;;;;;-143.83;100.00;62900.06;4923383;29;20079;-66
2022/12/01 07:45:00;;;;;;;10.57;10.07;;;;;;;-143.83;100.00;62900.06;4925874;29;20487;-68
2022/12/01 07:47:25;;;;;;;10.50;10.00;;;;;;;-143.83;100.00;62900.06;4922366;29;20032;-67
2022/12/01 07:49:51;;;;;;;10.43;9.93;;;;;;;-143.83;100.00;62900.06;4923372;29;20032;-67
2022/12/01 07:52:16;;;;;;;11.25;10.65;;;;;;;-143.83;100.00;62900.06;4911480;29;20032;-67
2022/12/01 07:54:42;;;;;;;11.25;10.65;;;;;;;-143.83;100.00;62900.06;4927663;29;20028;-67
2022/12/01 07:57:07;;;;;;;11.77;11.15;;;;;;;-143.83;100.00;62900.06;4924667;29;20372;-67
2022/12/01 07:59:33;;;;;;;11.00;10.45;;;;;;;-143.83;100.00;62900.06;4909144;29;20035;-67
2022/12/01 08:01:58;;;;;;;11.60;11.00;;;;;;;-143.83;100.00;62900.06;4922820;29;20059;-66
2022/12/01 08:04:24;;;;;;;11.38;10.77;;;;;;;-143.83;100.00;62900.06;4929850;29;20031;-66
2022/12/01 08:06:49;;;;;;;10.90;10.32;;;;;;;-143.83;100.00;62900.06;4932074;29;20028;-66
2022/12/01 08:09:15;;;;;;;10.90;10.38;;;;;;;-143.83;100.00;62900.06;4922339;29;20115;-68
2022/12/01 08:11:41;;;;;;;11.52;10.93;;;;;;;-143.83;100.00;62900.06;4927851;29;20115;-66
2022/12/01 08:14:07;;;;;;;11.48;10.88;;;;;;;-143.83;100.00;62900.06;4922753;29;20068;-66
2022/12/01 08:16:32;;;;;;;10.63;10.13;;;;;;;-143.83;100.00;62900.06;4926335;29;20483;-66
2022/12/01 08:18:58;;;;;;;11.13;10.52;;;;;;;-143.83;100.00;62900.06;4928964;29;20039;-66
2022/12/01 08:21:24;;;;;;;11.15;10.55;;;;;;;-143.83;100.00;62900.06;4927752;29;20122;-68
2022/12/01 08:23:56;;;;;;;11.15;10.57;;;;;;;-143.83;100.00;62900.06;4922972;29;20063;-66
2022/12/01 08:26:23;;;;;;;11.48;10.88;;;;;;;-143.83;100.00;62900.06;4925144;29;20027;-66
2022/12/01 08:28:48;;;;;;;11.07;10.52;;;;;;;-143.83;100.00;62900.06;4909076;29;20059;-66
2022/12/01 08:31:18;;;;;;;11.68;11.07;;;;;;;-143.83;100.00;62900.06;4924489;29;20034;-67
2022/12/01 08:33:44;;;;;;;10.85;10.35;;;;;;;-143.83;100.00;62900.06;4926084;29;20035;-68
2022/12/01 08:36:10;;;;;;;11.30;10.70;;;;;;;-143.83;100.00;62900.06;4922708;29;20019;-67
2022/12/01 08:38:35;;;;;;;13.10;12.30;;;;;;;-143.83;100.00;62900.06;4921297;29;20659;-66
2022/12/01 08:41:06;;;;;;;11.30;10.70;;;;;;;-143.83;100.00;62900.06;4926123;29;20377;-66
2022/12/01 08:43:32;;;;;;;13.20;12.38;;;;;;;-143.83;100.00;62900.06;4927504;29;20115;-68
2022/12/01 08:46:01;;;;;;;11.45;10.85;;;;;;;-143.83;100.00;62900.06;4922436;29;20545;-66
2022/12/01 08:48:29;;;;;;;11.27;10.68;;;;;;;-143.83;100.00;62900.06;4922283;29;20341;-66
2022/12/01 08:51:05;;;;;;;11.07;10.48;;;;;;;-143.83;100.00;62900.06;4926654;29;20043;-67
2022/12/01 08:53:32;;;;;;;10.93;10.43;;;;;;;-143.83;100.00;62900.06;4917350;29;20024;-66
2022/12/01 08:56:03;;;;;;;11.25;10.65;;;;;;;-143.83;100.00;62900.06;4924744;29;20028;-67
2022/12/01 08:58:29;;;;;;;10.52;10.02;;;;;;;-143.83;100.00;62900.06;4921756;29;20068;-67
2022/12/01 09:01:09;;;;;;;11.95;11.25;;;;;;;-143.83;100.00;62900.06;4907088;29;20070;-67
2022/12/01 09:03:35;;;;;;;10.98;10.43;;;;;;;-143.83;100.00;62900.06;4927795;29;20023;-66
2022/12/01 09:06:09;;;;;;;11.23;10.63;;;;;;;-143.83;100.00;62900.06;4910732;29;20487;-67
2022/12/01 09:08:35;;;;;;;10.68;10.13;;;;;;;-143.83;100.00;62900.06;4925393;29;20036;-66
2022/12/01 09:11:07;;;;;;;10.75;10.15;;;;;;;-143.83;100.00;62900.06;4908845;29;20058;-69
2022/12/01 09:13:34;;;;;;;10.85;10.30;;;;;;;-143.83;100.00;62900.06;4910346;29;20519;-67
2022/12/01 09:16:02;;;;;;;11.25;10.65;;;;;;;-143.83;100.00;62900.06;4914814;29;20399;-66
2022/12/01 09:18:27;;;;;;;10.32;9.82;;;;;;;-143.83;100.00;62900.06;4928931;29;20047;-67
2022/12/01 09:20:54;;;;;;;11.30;10.70;;;;;;;-143.83;100.00;62900.06;4931596;29;20148;-66
2022/12/01 09:23:20;;;;;;;10.48;9.98;;;;;;;-143.83;100.00;62900.06;4927336;29;20019;-68
2022/12/01 09:25:47;;;;;;;10.38;9.88;;;;;;;-143.83;100.00;62900.06;4927199;29;20123;-67
2022/12/01 09:28:13;;;;;;;11.27;10.68;;;;;;;-143.83;100.00;62900.06;4932081;29;20073;-67
2022/12/01 09:30:38;;;;;;;10.35;9.85;;;;;;;-143.83;100.00;62900.06;4932215;29;20055;-66
2022/12/01 09:33:04;;;;;;;11.32;10.73;;;;;;;-143.83;100.00;62900.06;4931816;29;20039;-67
2022/12/01 09:35:30;;;;;;;11.52;10.93;;;;;;;-143.83;100.00;62900.06;4929259;29;20032;-68
2022/12/01 09:37:57;;;;;;;11.48;10.88;;;;;;;-143.83;100.00;62900.06;4918905;29;20024;-67
2022/12/01 09:40:31;;;;;;;11.18;10.57;;;;;;;-143.83;100.00;62900.06;4927050;29;20051;-68
2022/12/01 09:42:57;;;;;;;;;;;;;;;-143.83;100.00;62900.06;4931745;29;20090;-68
2022/12/01 09:45:26;;;;;;;10.90;10.30;;;;;;;-143.83;100.00;62900.06;4906599;29;19946;-67
2022/12/01 09:47:54;;;;;;;11.07;10.48;;;;;;;-143.83;100.00;62900.06;4920556;29;20373;-67
2022/12/01 09:50:24;;;;;;;10.90;10.30;;;;;;;-143.83;100.00;62900.06;4929802;29;20547;-66
2022/12/01 09:53:06;;;;;;;10.50;10.00;;;;;;;-143.83;100.00;62900.06;4928872;29;20099;-67
2022/12/01 09:55:33;;;;;;;10.07;9.57;;;;;;;-143.83;100.00;62900.06;4928423;29;20032;-67
2022/12/01 09:58:01;;;;;;;11.00;10.40;;;;;;;-143.83;100.00;62900.06;4932020;29;20337;-67
2022/12/01 10:00:41;;;;;;;10.40;9.90;;;;;;;-143.83;100.00;62900.06;4927264;29;20094;-68
2022/12/01 10:03:36;;;;;;;10.43;9.93;;;;;;;-143.83;100.00;62900.06;4920197;29;20080;-67
2022/12/01 10:06:07;;;;;;;11.02;10.43;;;;;;;-143.83;100.00;62900.06;4928029;29;20046;-67
2022/12/01 10:08:39;;;;;;;10.60;10.10;;;;;;;-143.83;100.00;62900.06;4927744;29;20031;-67
2022/12/01 10:11:24;;;;;;;10.93;10.32;;;;;;;-143.83;100.00;62900.06;4929984;29;20027;-66
2022/12/01 10:13:50;;;;;;;10.25;9.75;;;;;;;-143.83;100.00;62900.06;4921160;29;20387;-66
2022/12/01 10:16:25;;;;;;;11.07;10.48;;;;;;;-143.83;100.00;62900.06;4927429;29;20024;-66
2022/12/01 10:19:16;;;;;;;10.57;10.07;;;;;;;-143.83;100.00;62900.06;4928670;29;20033;-67
2022/12/01 10:21:48;;;;;;;10.88;10.30;;;;;;;-143.83;100.00;62900.06;4921242;29;20440;-67
2022/12/01 10:25:02;;;;;;;10.50;10.00;;;;;;;-143.83;100.00;62900.06;4923763;29;20056;-67
2022/12/01 10:27:42;;;;;;;11.13;10.52;;;;;;;-143.83;100.00;62900.06;4875797;29;20532;-66
2022/12/01 10:30:14;;;;;;;10.85;10.25;;;;;;;-143.83;100.00;62900.06;4923727;29;20048;-68
2022/12/01 10:32:47;;;;;;;10.93;10.32;;;;;;;-143.83;100.00;62900.06;4925338;29;20067;-66
2022/12/01 10:35:18;;;;;;;10.73;10.17;;;;;;;-143.83;100.00;62900.06;4921805;29;20039;-66
2022/12/01 10:37:45;;;;;;;10.45;9.95;;;;;;;-143.83;100.00;62900.06;4921796;29;20060;-67
2022/12/01 10:40:13;;;;;;;11.00;10.40;;;;;;;-143.83;100.00;62900.06;4924725;29;20482;-66
2022/12/01 10:42:41;;;;;;;10.88;10.27;;;;;;;-143.83;100.00;62900.06;4928992;29;20476;-66
2022/12/01 10:45:15;;;;;;;10.40;9.90;;;;;;;-143.83;100.00;62900.06;4925410;29;20135;-66
2022/12/01 10:48:09;;;;;;;10.45;9.95;;;;;;;-143.83;100.00;62900.06;4925311;29;20039;-67
2022/12/01 10:50:35;;;;;;;10.00;9.50;;;;;;;-143.83;100.00;62900.06;4928809;29;20027;-67
2022/12/01 10:53:02;;;;;;;10.90;10.30;;;;;;;-143.83;100.00;62900.06;4927088;29;20031;-67
2022/12/01 10:55:37;;;;;;;10.30;9.80;;;;;;;-143.83;100.00;62900.06;4910280;29;20067;-68
2022/12/01 10:58:12;;;;;;;10.55;10.05;;;;;;;-143.83;100.00;62900.06;4928205;29;20028;-67
2022/12/01 11:00:40;;;;;;;11.35;10.75;;;;;;;-143.83;100.00;62900.06;4924362;29;20059;-67
2022/12/01 11:03:18;;;;;;;10.20;9.70;;;;;;;-143.83;100.00;62900.06;4928205;29;20089;-67
2022/12/01 11:05:51;;;;;;;9.85;9.40;;;;;;;-143.83;100.00;62900.06;4924553;29;20027;-67
2022/12/01 11:08:40;;;;;;;11.13;10.52;;;;;;;-143.83;100.00;62900.06;4928476;29;20067;-67
2022/12/01 11:11:21;;;;;;;10.20;9.70;;;;;;;-143.83;100.00;62900.06;4920734;29;20040;-67
2022/12/01 11:13:47;;;;;;;10.77;10.25;;;;;;;-143.83;100.00;62900.06;4927703;29;20444;-67